Terminal Aerodrome Forecast
Issued by NWS Grand Forks, ND

Home | Current Version | Previous Version | Graphics & Text | Print | Product List | Glossary On
Versions: 1 2 3 4 5 6 7 8 9 10 11 12 13 14 15 16 17 18 19 20 21 22 23 24
632
FTUS43 KFGF 112225 AAC
TAFGFK
TAF AMD
KGFK 112225Z 1122/1218 34007KT P6SM BKN035
      TEMPO 1122/1123 BKN026
     FM120100 34008KT P6SM BKN050
     FM120300 33010KT P6SM BKN250=

USA.gov is the U.S. government's official web portal to all federal, state and local government web resources and services.